Time;durP1;ratioP1;P1;durP2;ratioP2;P2;SDS_P1;SDS_P2;PMS_P1;PMS_P2;Temp;Humidity;BMP_temperature;BMP_pressure;BME280_temperature;BME280_humidity;BME280_pressure;Samples;Min_cycle;Max_cycle;Signal;HPM_P1;HPM_P2
2023/06/15 00:01:06;;;;;;;7.90;5.13;;;;;;;14.65;79.97;99838.44;4489798;31;33166;-85
2023/06/15 00:03:33;;;;;;;8.43;5.53;;;;;;;14.58;80.32;99836.47;4478199;31;34408;-84
2023/06/15 00:06:01;;;;;;;8.73;5.47;;;;;;;14.61;80.46;99834.84;4493855;31;34513;-85
2023/06/15 00:08:37;;;;;;;9.10;5.55;;;;;;;14.59;80.34;99833.91;4484635;31;33695;-85
2023/06/15 00:11:07;;;;;;;9.45;5.43;;;;;;;14.90;78.78;99835.66;4451874;31;33699;-84
2023/06/15 00:13:34;;;;;;;8.80;5.57;;;;;;;14.68;79.48;99828.06;4484492;31;34341;-84
2023/06/15 00:16:02;;;;;;;9.80;5.35;;;;;;;14.57;79.96;99830.38;4482967;31;34490;-84
2023/06/15 00:18:32;;;;;;;9.35;5.87;;;;;;;14.67;79.72;99837.62;4483253;31;32488;-84
2023/06/15 00:21:00;;;;;;;7.85;5.22;;;;;;;14.70;79.45;99831.63;4492416;31;32793;-83
2023/06/15 00:23:29;;;;;;;8.93;5.87;;;;;;;14.52;80.27;99831.94;4482988;31;34376;-84
2023/06/15 00:25:57;;;;;;;9.57;5.70;;;;;;;14.75;79.29;99830.03;4482021;32;33502;-82
2023/06/15 00:28:24;;;;;;;9.50;5.35;;;;;;;15.00;78.25;99830.72;4481906;32;33988;-83
2023/06/15 00:30:52;;;;;;;8.23;5.45;;;;;;;14.99;78.32;99832.44;4481910;32;34127;-83
2023/06/15 00:33:19;;;;;;;9.85;5.20;;;;;;;15.09;77.79;99829.25;4481714;31;34084;-83
2023/06/15 00:35:49;;;;;;;7.30;4.93;;;;;;;15.18;77.27;99831.19;4489735;31;34567;-82
2023/06/15 00:38:18;;;;;;;8.68;5.20;;;;;;;15.04;78.06;99836.03;4483429;32;34258;-84
2023/06/15 00:40:46;;;;;;;8.85;5.10;;;;;;;15.31;76.71;99832.41;4484016;32;32622;-82
2023/06/15 00:43:13;;;;;;;8.73;5.37;;;;;;;14.94;78.22;99832.31;4484246;32;33904;-84
2023/06/15 00:45:41;;;;;;;7.87;5.20;;;;;;;14.81;78.60;99829.31;4491625;31;34667;-84
2023/06/15 00:48:09;;;;;;;7.75;5.50;;;;;;;14.87;78.42;99832.09;4485223;31;33985;-83
2023/06/15 00:50:38;;;;;;;10.90;5.70;;;;;;;14.83;79.19;99832.84;4480644;31;33420;-84
2023/06/15 00:53:06;;;;;;;8.93;5.85;;;;;;;14.54;80.36;99830.25;4486710;31;34154;-82
2023/06/15 00:55:35;;;;;;;8.07;5.57;;;;;;;14.37;81.57;99824.56;4489156;31;33449;-82
2023/06/15 00:58:02;;;;;;;8.60;5.65;;;;;;;14.38;81.53;99838.47;4483905;32;34204;-83
2023/06/15 01:00:32;;;;;;;8.38;5.82;;;;;;;14.30;82.03;99826.09;4470487;32;33110;-83
2023/06/15 01:03:06;;;;;;;8.88;6.07;;;;;;;14.06;83.29;99825.34;4483985;31;33318;-83
2023/06/15 01:05:34;;;;;;;8.77;5.43;;;;;;;13.96;83.54;99830.28;4492819;31;32918;-84
2023/06/15 01:08:04;;;;;;;9.20;5.65;;;;;;;13.89;84.01;99828.31;4488754;31;33594;-84
2023/06/15 01:10:34;;;;;;;8.63;5.80;;;;;;;14.02;83.65;99826.06;4459141;31;34059;-83
2023/06/15 01:13:03;;;;;;;8.77;5.67;;;;;;;13.78;85.15;99829.69;4472468;31;32569;-83
2023/06/15 01:15:31;;;;;;;8.38;5.80;;;;;;;13.59;86.27;99827.31;4474364;31;32167;-83
2023/06/15 01:17:59;;;;;;;7.72;5.75;;;;;;;13.63;86.68;99831.78;4472196;31;33455;-84
2023/06/15 01:20:40;;;;;;;7.60;5.80;;;;;;;13.83;85.76;99825.50;4473314;31;32983;-84
2023/06/15 01:23:19;;;;;;;9.20;5.40;;;;;;;13.68;86.62;99825.03;4473450;31;33829;-84
2023/06/15 01:25:48;;;;;;;7.62;5.40;;;;;;;13.66;87.18;99816.28;4484989;31;33960;-83
2023/06/15 01:28:20;;;;;;;9.70;5.78;;;;;;;13.62;87.79;99817.87;4496154;31;34023;-82
2023/06/15 01:30:51;;;;;;;8.10;5.87;;;;;;;13.78;86.91;99808.84;4474968;31;32582;-83
2023/06/15 01:33:20;;;;;;;9.43;5.63;;;;;;;13.69;87.46;99811.16;4490464;31;33662;-83
2023/06/15 01:35:47;;;;;;;7.62;5.57;;;;;;;13.80;87.12;99809.78;4494827;31;33711;-83
2023/06/15 01:38:18;;;;;;;8.00;5.40;;;;;;;13.72;86.57;99803.44;4494056;31;33557;-83
2023/06/15 01:40:48;;;;;;;8.27;5.82;;;;;;;13.62;86.64;99811.78;4474676;31;32322;-84
2023/06/15 01:43:24;;;;;;;8.75;5.30;;;;;;;13.61;86.74;99816.09;4479687;31;33543;-82
2023/06/15 01:45:53;;;;;;;8.55;5.28;;;;;;;13.71;85.78;99817.28;4486961;31;33122;-83
2023/06/15 01:48:20;;;;;;;7.57;5.37;;;;;;;13.53;86.81;99808.06;4480899;31;33649;-84
2023/06/15 01:50:49;;;;;;;7.18;5.25;;;;;;;13.88;85.71;99813.50;4474193;31;33228;-84
2023/06/15 01:53:17;;;;;;;7.65;5.25;;;;;;;13.82;85.22;99810.72;4490399;31;33241;-83
2023/06/15 01:55:45;;;;;;;9.02;5.05;;;;;;;13.79;85.29;99809.72;4480096;31;33778;-84
2023/06/15 01:58:15;;;;;;;8.10;5.70;;;;;;;13.85;85.03;99810.81;4489690;31;33942;-85
2023/06/15 02:00:44;;;;;;;8.98;5.12;;;;;;;13.94;84.73;99813.69;4494152;31;33685;-83
2023/06/15 02:03:12;;;;;;;8.90;5.28;;;;;;;13.98;84.62;99821.59;4477171;31;34649;-83
2023/06/15 02:05:40;;;;;;;7.60;5.33;;;;;;;14.03;84.14;99814.84;4474580;32;33530;-83
2023/06/15 02:08:08;;;;;;;8.60;5.70;;;;;;;13.81;85.34;99816.78;4469463;31;34234;-84
2023/06/15 02:10:37;;;;;;;8.65;5.30;;;;;;;13.49;87.57;99821.78;4487665;31;33872;-82
2023/06/15 02:13:07;;;;;;;8.88;5.90;;;;;;;13.77;86.11;99818.37;4491934;31;34042;-83
2023/06/15 02:15:36;;;;;;;7.87;5.53;;;;;;;13.62;86.25;99816.97;4494757;31;34661;-82
2023/06/15 02:18:11;;;;;;;9.40;5.43;;;;;;;13.60;86.81;99824.78;4485968;31;33807;-83
2023/06/15 02:20:43;;;;;;;7.70;5.35;;;;;;;13.62;87.19;99822.19;4486975;31;32339;-83
2023/06/15 02:23:11;;;;;;;7.69;5.49;;;;;;;13.71;86.16;99822.50;4483989;31;33545;-83
2023/06/15 02:25:38;;;;;;;8.53;5.20;;;;;;;13.46;87.22;99829.53;4483678;31;34092;-83
2023/06/15 02:28:06;;;;;;;8.35;5.47;;;;;;;13.53;86.87;99823.66;4483854;31;34445;-83
2023/06/15 02:30:36;;;;;;;10.07;5.57;;;;;;;13.49;86.79;99826.13;4486679;31;33286;-82
2023/06/15 02:33:05;;;;;;;7.95;5.40;;;;;;;13.52;86.38;99818.41;4491205;31;33590;-82
2023/06/15 02:35:33;;;;;;;9.27;5.62;;;;;;;13.56;86.32;99817.69;4487284;31;33706;-83
2023/06/15 02:38:00;;;;;;;8.77;5.97;;;;;;;13.29;87.71;99822.78;4489849;31;34596;-83
2023/06/15 02:40:28;;;;;;;9.40;5.80;;;;;;;13.13;88.75;99821.38;4483473;31;32895;-83
2023/06/15 02:42:56;;;;;;;9.35;6.20;;;;;;;13.29;88.19;99825.41;4489813;31;33902;-82
2023/06/15 02:45:23;;;;;;;9.48;5.87;;;;;;;13.08;89.32;99826.44;4489549;31;33521;-83
2023/06/15 02:47:51;;;;;;;10.20;5.95;;;;;;;13.07;89.28;99827.25;4491334;31;34312;-83
2023/06/15 02:50:19;;;;;;;8.88;5.93;;;;;;;13.04;89.57;99821.06;4469642;32;31343;-83
2023/06/15 02:52:47;;;;;;;9.70;5.80;;;;;;;13.06;89.00;99820.31;4484574;31;33417;-83
2023/06/15 02:55:15;;;;;;;9.48;6.22;;;;;;;13.14;88.58;99821.44;4487906;31;34512;-83
2023/06/15 02:57:44;;;;;;;8.30;6.00;;;;;;;13.38;87.26;99817.94;4494994;31;34363;-83
2023/06/15 03:00:13;;;;;;;8.20;5.60;;;;;;;13.14;87.89;99818.84;4490926;31;33840;-83
2023/06/15 03:02:43;;;;;;;8.60;5.15;;;;;;;13.26;87.46;99820.09;4483299;32;33120;-82
2023/06/15 03:05:11;;;;;;;8.30;5.00;;;;;;;14.24;82.04;99819.81;4483035;31;33668;-82
2023/06/15 03:07:40;;;;;;;7.12;5.40;;;;;;;14.15;81.04;99815.19;4486301;31;33237;-84
2023/06/15 03:10:09;;;;;;;7.78;4.95;;;;;;;14.66;79.95;99815.03;4482888;31;33624;-84
2023/06/15 03:12:37;;;;;;;10.63;5.25;;;;;;;15.46;75.22;99811.94;4483151;32;33681;-83
2023/06/15 03:15:08;;;;;;;7.10;4.90;;;;;;;15.27;75.96;99814.91;4482721;31;33244;-82
2023/06/15 03:17:36;;;;;;;8.02;5.05;;;;;;;15.14;76.39;99814.59;4483404;32;33396;-84
2023/06/15 03:20:07;;;;;;;7.28;4.90;;;;;;;14.68;78.14;99821.16;4495882;31;33369;-83
2023/06/15 03:22:35;;;;;;;10.25;5.47;;;;;;;14.25;79.64;99821.56;4485315;31;34327;-82
2023/06/15 03:25:03;;;;;;;7.83;5.23;;;;;;;14.02;81.10;99823.47;4486732;31;33882;-83
2023/06/15 03:27:32;;;;;;;8.15;5.70;;;;;;;14.09;80.66;99825.44;4485887;31;34255;-83
2023/06/15 03:30:05;;;;;;;7.63;5.10;;;;;;;14.15;80.85;99825.63;4498167;31;33402;-83
2023/06/15 03:32:33;;;;;;;10.43;6.43;;;;;;;14.16;80.57;99828.28;4472575;31;31572;-83
2023/06/15 03:35:01;;;;;;;11.63;7.00;;;;;;;13.81;82.00;99831.47;4485131;31;33742;-83
2023/06/15 03:37:29;;;;;;;10.55;6.25;;;;;;;13.92;81.82;99837.94;4482727;31;34346;-82
2023/06/15 03:39:58;;;;;;;9.13;6.68;;;;;;;13.94;81.50;99836.25;4469333;32;33489;-82
2023/06/15 03:42:25;;;;;;;10.40;6.30;;;;;;;13.91;81.49;99842.25;4469853;31;33533;-84
2023/06/15 03:44:53;;;;;;;9.02;5.80;;;;;;;14.56;78.63;99833.78;4482518;31;34583;-84
2023/06/15 03:47:20;;;;;;;10.38;6.05;;;;;;;14.17;80.15;99844.78;4468432;32;34481;-82
2023/06/15 03:49:48;;;;;;;9.20;6.30;;;;;;;14.19;80.55;99848.31;4482527;31;33838;-83
2023/06/15 03:52:15;;;;;;;7.80;5.62;;;;;;;14.39;79.67;99842.81;4482963;31;34621;-84
2023/06/15 03:54:43;;;;;;;9.30;5.65;;;;;;;14.09;80.89;99841.06;4482333;31;33828;-83
2023/06/15 03:57:11;;;;;;;7.05;5.22;;;;;;;13.90;82.17;99843.06;4481911;32;33525;-83
2023/06/15 03:59:39;;;;;;;9.45;5.60;;;;;;;13.95;81.72;99838.03;4469998;31;32671;-82
2023/06/15 04:02:07;;;;;;;8.98;5.45;;;;;;;13.99;81.15;99839.03;4470770;31;33192;-84
2023/06/15 04:04:35;;;;;;;8.68;5.70;;;;;;;13.87;81.96;99840.41;4494146;31;33674;-84
2023/06/15 04:07:04;;;;;;;8.82;5.55;;;;;;;14.55;79.25;99842.47;4482229;32;33665;-84
2023/06/15 04:09:32;;;;;;;9.00;5.70;;;;;;;14.78;78.08;99844.91;4482157;32;33951;-84
2023/06/15 04:12:00;;;;;;;8.88;5.22;;;;;;;14.96;77.15;99844.53;4482758;31;33616;-83
2023/06/15 04:14:28;;;;;;;8.23;5.43;;;;;;;14.90;77.71;99845.22;4473820;31;33713;-84
2023/06/15 04:16:55;;;;;;;11.38;5.50;;;;;;;14.81;77.80;99845.84;4493818;31;33718;-83
2023/06/15 04:19:25;;;;;;;8.57;5.07;;;;;;;14.85;77.83;99846.81;4493516;31;33144;-85
2023/06/15 04:21:52;;;;;;;9.20;6.12;;;;;;;14.85;78.05;99849.41;4487236;31;33226;-83
2023/06/15 04:24:21;;;;;;;10.00;5.87;;;;;;;15.32;76.41;99855.94;4497456;31;33979;-82
2023/06/15 04:26:49;;;;;;;9.55;5.62;;;;;;;15.34;76.40;99853.38;4484062;32;33653;-84
2023/06/15 04:29:18;;;;;;;7.97;5.70;;;;;;;15.42;76.47;99851.84;4484122;31;33091;-82
2023/06/15 04:31:46;;;;;;;10.18;5.85;;;;;;;15.52;76.31;99859.06;4489855;31;33705;-84
2023/06/15 04:34:15;;;;;;;9.35;6.22;;;;;;;15.31;77.04;99858.50;4493887;31;33366;-83
2023/06/15 04:36:44;;;;;;;9.20;6.13;;;;;;;15.37;77.14;99853.44;4497327;31;33103;-83
2023/06/15 04:39:13;;;;;;;9.13;6.28;;;;;;;15.28;77.18;99863.66;4464665;32;33093;-83
2023/06/15 04:41:42;;;;;;;9.05;5.93;;;;;;;15.40;77.22;99863.09;4486458;31;33658;-82
2023/06/15 04:44:09;;;;;;;9.93;6.25;;;;;;;15.52;76.74;99864.28;4485692;31;34107;-83
2023/06/15 04:46:40;;;;;;;8.63;5.45;;;;;;;15.83;75.56;99865.09;4488245;31;33653;-84
2023/06/15 04:49:08;;;;;;;9.73;5.93;;;;;;;16.85;71.32;99859.56;4487191;31;32770;-85
2023/06/15 04:51:38;;;;;;;9.88;5.80;;;;;;;17.83;67.15;99857.88;4486842;31;33686;-83
2023/06/15 04:54:06;;;;;;;8.18;5.60;;;;;;;17.65;67.51;99863.66;4483581;31;34138;-83
2023/06/15 04:56:34;;;;;;;10.05;5.65;;;;;;;17.65;68.05;99863.66;4474910;32;34417;-83
2023/06/15 04:59:01;;;;;;;10.02;5.80;;;;;;;17.22;69.65;99868.12;4484067;31;33295;-84
2023/06/15 05:01:30;;;;;;;9.07;5.82;;;;;;;16.83;70.59;99871.72;4493291;31;33599;-85
2023/06/15 05:03:58;;;;;;;8.80;5.60;;;;;;;16.81;70.73;99860.31;4483583;31;33283;-83
2023/06/15 05:06:26;;;;;;;8.75;5.85;;;;;;;17.29;69.11;99865.66;4486871;31;33673;-82
2023/06/15 05:08:54;;;;;;;12.03;6.23;;;;;;;17.14;69.28;99869.72;4484180;31;34691;-83
2023/06/15 05:11:22;;;;;;;10.02;5.80;;;;;;;16.90;68.98;99865.75;4470915;31;34711;-84
2023/06/15 05:13:50;;;;;;;10.02;5.80;;;;;;;16.72;69.90;99861.00;4486063;31;34606;-83
2023/06/15 05:16:19;;;;;;;9.82;5.80;;;;;;;17.15;68.53;99872.34;4482016;31;34111;-84
2023/06/15 05:18:47;;;;;;;10.50;6.20;;;;;;;17.18;69.00;99868.94;4485983;31;32927;-83
2023/06/15 05:21:14;;;;;;;9.48;5.95;;;;;;;17.09;69.79;99878.37;4487563;31;33877;-82
2023/06/15 05:23:42;;;;;;;9.48;5.93;;;;;;;17.42;68.99;99882.50;4488476;31;34563;-84
2023/06/15 05:26:11;;;;;;;8.40;5.60;;;;;;;17.30;70.26;99887.47;4491934;31;33295;-84
2023/06/15 05:28:57;;;;;;;8.45;5.37;;;;;;;17.94;68.38;99887.75;4474191;32;32137;-84
2023/06/15 05:31:25;;;;;;;8.32;5.37;;;;;;;18.34;66.71;99892.75;4477766;31;33190;-83
2023/06/15 05:33:53;;;;;;;8.73;5.32;;;;;;;18.28;65.17;99894.41;4492183;31;33414;-85
2023/06/15 05:36:21;;;;;;;9.80;5.20;;;;;;;18.07;66.01;99894.09;4492525;31;33643;-84
2023/06/15 05:38:52;;;;;;;9.27;5.20;;;;;;;18.48;65.31;99896.44;4492418;31;33540;-84
2023/06/15 05:41:19;;;;;;;9.33;5.23;;;;;;;18.85;64.48;99890.00;4483685;31;33773;-83
2023/06/15 05:43:49;;;;;;;10.63;5.30;;;;;;;19.09;64.37;99895.53;4490291;31;33490;-84
2023/06/15 05:46:17;;;;;;;7.60;4.82;;;;;;;18.78;66.35;99895.97;4484429;31;33555;-84
2023/06/15 05:48:45;;;;;;;8.30;5.03;;;;;;;19.60;63.12;99897.81;4483822;31;32732;-83
2023/06/15 05:51:13;;;;;;;8.03;4.77;;;;;;;19.54;62.10;99899.50;4490591;31;34331;-85
2023/06/15 05:53:41;;;;;;;9.63;5.07;;;;;;;19.93;60.61;99903.38;4476681;31;33987;-83
2023/06/15 05:56:09;;;;;;;7.68;5.07;;;;;;;19.83;61.29;99903.31;4488722;31;34277;-84
2023/06/15 05:58:37;;;;;;;8.55;4.97;;;;;;;19.99;61.11;99906.06;4479458;31;32771;-84
2023/06/15 06:01:05;;;;;;;11.70;5.70;;;;;;;20.11;60.40;99908.81;4489188;31;34479;-85
2023/06/15 06:03:35;;;;;;;9.52;5.72;;;;;;;20.23;59.35;99908.91;4483745;31;33153;-84
2023/06/15 06:06:03;;;;;;;9.98;5.90;;;;;;;20.20;59.69;99908.87;4484097;31;34205;-83
2023/06/15 06:08:31;;;;;;;9.50;5.95;;;;;;;20.18;59.44;99907.97;4495436;31;33428;-84
2023/06/15 06:10:58;;;;;;;8.32;5.82;;;;;;;20.33;59.59;99903.69;4477530;31;33396;-83
2023/06/15 06:13:27;;;;;;;9.88;5.53;;;;;;;20.41;59.39;99902.87;4483579;31;33615;-83
2023/06/15 06:15:55;;;;;;;9.35;5.40;;;;;;;20.40;59.31;99908.16;4483894;31;34148;-85
2023/06/15 06:18:23;;;;;;;8.38;5.32;;;;;;;20.46;59.16;99905.53;4486552;31;33684;-84
2023/06/15 06:20:51;;;;;;;8.55;5.15;;;;;;;20.69;58.71;99916.25;4471998;31;33664;-86
2023/06/15 06:23:18;;;;;;;9.68;4.70;;;;;;;20.91;57.90;99904.06;4484530;31;34227;-84
2023/06/15 06:25:46;;;;;;;9.13;4.85;;;;;;;21.00;57.15;99906.72;4495616;31;33677;-84
2023/06/15 06:28:14;;;;;;;10.68;5.20;;;;;;;21.35;56.44;99908.59;4484441;31;34340;-83
2023/06/15 06:30:41;;;;;;;10.38;5.37;;;;;;;21.23;57.29;99913.84;4484002;31;33560;-84
2023/06/15 06:33:09;;;;;;;9.90;5.95;;;;;;;21.26;56.50;99915.59;4477229;31;34213;-83
2023/06/15 06:35:37;;;;;;;9.45;5.20;;;;;;;21.35;55.66;99911.22;4487837;31;35018;-85
2023/06/15 06:38:04;;;;;;;9.05;4.75;;;;;;;21.73;54.68;99909.56;4484653;31;33663;-84
2023/06/15 06:40:32;;;;;;;8.68;5.45;;;;;;;21.95;54.49;99907.84;4489917;31;33470;-84
2023/06/15 06:43:00;;;;;;;9.30;4.97;;;;;;;21.23;55.01;99905.94;4477342;31;33908;-84
2023/06/15 06:45:27;;;;;;;9.52;4.72;;;;;;;21.49;55.25;99905.16;4489277;31;34042;-83
2023/06/15 06:47:57;;;;;;;7.22;4.65;;;;;;;21.93;54.43;99906.97;4496427;31;33174;-85
2023/06/15 06:50:24;;;;;;;6.93;4.62;;;;;;;22.41;51.81;99917.50;4486128;31;32944;-85
2023/06/15 06:52:52;;;;;;;7.50;4.53;;;;;;;22.06;53.44;99911.38;4483227;31;32385;-84
2023/06/15 06:55:20;;;;;;;8.43;4.53;;;;;;;21.76;54.83;99913.09;4483012;32;32764;-84
2023/06/15 06:57:47;;;;;;;8.32;4.87;;;;;;;21.25;54.32;99909.47;4487791;31;34079;-84
2023/06/15 07:00:15;;;;;;;7.05;4.85;;;;;;;21.41;55.36;99905.09;4493013;31;33980;-84
2023/06/15 07:02:43;;;;;;;8.55;4.57;;;;;;;22.65;51.80;99900.75;4486506;31;33302;-84
2023/06/15 07:05:11;;;;;;;8.50;4.50;;;;;;;22.78;51.07;99907.75;4491372;31;33442;-84
2023/06/15 07:07:39;;;;;;;7.55;4.45;;;;;;;22.81;49.08;99907.72;4488836;31;34309;-83
2023/06/15 07:10:07;;;;;;;8.90;4.30;;;;;;;23.00;49.13;99902.37;4486005;31;33847;-81
2023/06/15 07:12:35;;;;;;;8.93;4.57;;;;;;;23.42;47.68;99903.06;4484544;31;33800;-83
2023/06/15 07:15:03;;;;;;;7.50;4.07;;;;;;;24.32;45.73;99890.94;4487838;31;33793;-86
2023/06/15 07:17:32;;;;;;;7.57;4.65;;;;;;;23.86;46.49;99901.94;4488005;31;33153;-86
2023/06/15 07:19:59;;;;;;;7.05;4.50;;;;;;;23.16;47.09;99899.69;4476821;31;33976;-84
2023/06/15 07:22:27;;;;;;;7.70;4.60;;;;;;;23.39;48.61;99905.72;4475640;31;33470;-83
2023/06/15 07:24:55;;;;;;;8.60;4.70;;;;;;;23.46;48.83;99896.88;4473171;31;34155;-85
2023/06/15 07:27:22;;;;;;;8.70;5.15;;;;;;;23.42;51.33;99901.31;4487559;31;34514;-84
2023/06/15 07:29:50;;;;;;;8.40;4.68;;;;;;;22.70;49.56;99893.69;4482789;31;34176;-84
2023/06/15 07:32:18;;;;;;;8.70;4.85;;;;;;;22.74;51.30;99891.03;4445616;31;32454;-86
2023/06/15 07:34:46;;;;;;;8.63;5.40;;;;;;;23.60;48.75;99889.72;4475932;32;33018;-86
2023/06/15 07:37:13;;;;;;;8.30;4.57;;;;;;;24.56;47.77;99886.31;4471397;31;32538;-85
2023/06/15 07:39:41;;;;;;;7.70;4.12;;;;;;;25.01;45.58;99891.94;4492108;31;33914;-85
2023/06/15 07:42:09;;;;;;;9.50;4.50;;;;;;;25.43;41.79;99889.63;4491008;31;34355;-83
2023/06/15 07:44:36;;;;;;;6.47;4.07;;;;;;;25.50;41.74;99891.31;4484475;31;33545;-84
2023/06/15 07:47:06;;;;;;;7.47;4.03;;;;;;;25.76;40.20;99876.75;4488344;31;33471;-84
2023/06/15 07:49:34;;;;;;;8.63;4.10;;;;;;;25.81;40.80;99877.56;4486442;31;33819;-84
2023/06/15 07:52:12;;;;;;;10.13;4.10;;;;;;;26.61;38.12;99869.06;4473495;31;32832;-83
2023/06/15 07:54:41;;;;;;;7.22;4.00;;;;;;;27.19;37.50;99869.63;4495985;31;33995;-83
2023/06/15 07:57:09;;;;;;;7.93;4.00;;;;;;;27.01;37.76;99884.19;4487491;31;33596;-84
2023/06/15 07:59:37;;;;;;;6.32;3.78;;;;;;;27.16;37.09;99871.47;4488631;31;33835;-84
2023/06/15 08:02:04;;;;;;;6.43;3.70;;;;;;;27.41;36.43;99872.72;4494027;31;33998;-82
2023/06/15 08:04:32;;;;;;;6.12;3.70;;;;;;;24.70;41.60;99871.13;4484889;31;33769;-80
2023/06/15 08:07:00;;;;;;;7.47;3.87;;;;;;;25.69;39.35;99871.56;4488053;31;31679;-81
2023/06/15 08:09:28;;;;;;;9.38;4.18;;;;;;;28.05;36.47;99864.09;4472980;32;34050;-82
2023/06/15 08:11:56;;;;;;;6.72;3.70;;;;;;;29.25;33.71;99871.41;4484498;31;33340;-82
2023/06/15 08:14:24;;;;;;;6.53;4.00;;;;;;;28.86;34.55;99868.09;4484154;32;34947;-85
2023/06/15 08:16:51;;;;;;;6.18;4.05;;;;;;;29.90;34.45;99870.22;4486991;31;34110;-85
2023/06/15 08:19:19;;;;;;;7.93;4.40;;;;;;;29.57;33.40;99867.72;4484280;31;32978;-82
2023/06/15 08:21:47;;;;;;;6.67;3.70;;;;;;;30.46;32.42;99862.97;4476386;32;33319;-83
2023/06/15 08:24:14;;;;;;;8.25;3.87;;;;;;;31.25;31.23;99868.94;4492892;31;33366;-85
2023/06/15 08:26:42;;;;;;;9.55;4.20;;;;;;;27.97;35.69;99866.94;4489229;31;33947;-83
2023/06/15 08:29:10;;;;;;;8.18;3.60;;;;;;;27.68;37.47;99864.09;4487902;31;34424;-81
2023/06/15 08:31:50;;;;;;;6.72;3.70;;;;;;;26.09;36.95;99870.87;4490481;31;32963;-83
2023/06/15 08:34:18;;;;;;;6.82;3.47;;;;;;;26.05;37.08;99868.31;4492040;31;33696;-84
2023/06/15 08:36:46;;;;;;;6.43;3.70;;;;;;;28.15;33.67;99862.94;4486696;31;33468;-83
2023/06/15 08:39:14;;;;;;;7.53;3.60;;;;;;;28.15;33.43;99862.06;4474430;31;33689;-84
2023/06/15 08:41:44;;;;;;;7.23;3.70;;;;;;;27.30;33.98;99868.56;4491677;31;34749;-84
2023/06/15 08:44:13;;;;;;;6.47;3.72;;;;;;;27.94;34.02;99866.16;4485574;31;34382;-83
2023/06/15 08:46:42;;;;;;;8.05;3.85;;;;;;;30.16;31.34;99857.78;4488288;31;33197;-85
2023/06/15 08:49:10;;;;;;;7.32;4.00;;;;;;;30.91;31.22;99864.91;4474804;31;33378;-86
2023/06/15 08:51:38;;;;;;;7.32;4.03;;;;;;;28.78;33.66;99866.56;4473508;31;33461;-85
2023/06/15 08:54:08;;;;;;;9.10;4.30;;;;;;;29.19;32.91;99856.47;4472844;31;33719;-85
2023/06/15 08:56:39;;;;;;;5.70;3.87;;;;;;;30.32;31.39;99856.31;4481320;31;33141;-86
2023/06/15 08:59:06;;;;;;;7.90;4.03;;;;;;;30.24;31.16;99847.69;4483684;31;34073;-85
2023/06/15 09:01:39;;;;;;;6.72;3.75;;;;;;;30.35;30.96;99845.53;4485041;31;33276;-83
2023/06/15 09:04:08;;;;;;;6.32;3.78;;;;;;;30.94;29.84;99854.09;4476027;31;32866;-82
2023/06/15 09:06:35;;;;;;;6.95;3.30;;;;;;;28.02;33.55;99841.06;4480026;31;33101;-81
2023/06/15 09:09:03;;;;;;;7.18;3.97;;;;;;;29.52;31.30;99848.31;4460454;31;33800;-84
2023/06/15 09:11:39;;;;;;;7.57;3.80;;;;;;;30.11;30.40;99843.69;4479790;31;33559;-81
2023/06/15 09:14:10;;;;;;;6.00;3.65;;;;;;;29.35;30.65;99850.66;4474938;31;33059;-82
2023/06/15 09:16:39;;;;;;;6.20;3.65;;;;;;;29.02;31.25;99851.59;4470614;32;31530;-82
2023/06/15 09:19:11;;;;;;;6.20;3.40;;;;;;;29.18;31.17;99853.84;4490516;31;34371;-82
2023/06/15 09:21:41;;;;;;;6.22;3.20;;;;;;;28.51;30.74;99845.97;4470072;31;33465;-83
2023/06/15 09:24:09;;;;;;;5.80;3.37;;;;;;;28.74;30.04;99846.25;4483833;31;34302;-82
2023/06/15 09:26:39;;;;;;;6.12;3.15;;;;;;;26.76;33.16;99846.63;4489143;31;33318;-82
2023/06/15 09:29:09;;;;;;;5.78;3.28;;;;;;;27.27;32.25;99842.88;4489938;31;32777;-82
2023/06/15 09:31:37;;;;;;;6.80;3.55;;;;;;;26.82;32.88;99846.50;4485304;31;33466;-81
2023/06/15 09:34:12;;;;;;;7.28;3.40;;;;;;;28.03;31.96;99840.16;4485961;31;34497;-82
2023/06/15 09:36:49;;;;;;;6.37;3.47;;;;;;;27.57;32.07;99841.28;4488047;31;33581;-83
2023/06/15 09:39:23;;;;;;;6.05;3.30;;;;;;;27.97;31.21;99829.69;4489365;31;33107;-83
2023/06/15 09:42:01;;;;;;;6.28;3.45;;;;;;;27.89;32.27;99836.09;4477342;31;33724;-84
2023/06/15 09:44:28;;;;;;;7.80;3.37;;;;;;;27.96;32.19;99833.25;4467088;31;33767;-86
2023/06/15 09:46:58;;;;;;;4.90;3.10;;;;;;;27.09;33.58;99836.19;4484842;31;33020;-84
2023/06/15 09:49:28;;;;;;;5.82;3.45;;;;;;;26.13;32.69;99829.22;4493266;31;34063;-84
2023/06/15 09:51:57;;;;;;;5.57;3.50;;;;;;;27.35;31.23;99834.72;4486863;31;33525;-87
2023/06/15 09:54:28;;;;;;;6.87;3.37;;;;;;;27.01;32.79;99819.53;4486601;31;34480;-83
2023/06/15 09:56:57;;;;;;;6.37;3.10;;;;;;;27.65;31.80;99827.81;4479350;31;32934;-86
2023/06/15 09:59:25;;;;;;;5.62;3.35;;;;;;;27.85;29.74;99824.63;4475286;31;33737;-85
2023/06/15 10:01:55;;;;;;;5.50;3.10;;;;;;;27.11;32.79;99823.72;4484157;31;34173;-87
2023/06/15 10:04:25;;;;;;;6.20;3.30;;;;;;;28.18;30.27;99817.59;4480695;31;32296;-84
2023/06/15 10:06:57;;;;;;;6.12;3.40;;;;;;;27.17;32.33;99822.72;4491115;31;32313;-85
2023/06/15 10:09:28;;;;;;;7.68;3.22;;;;;;;26.01;32.40;99824.16;4470817;31;33621;-84
2023/06/15 10:12:05;;;;;;;4.60;2.70;;;;;;;27.38;29.46;99821.38;4488047;31;34186;-84
2023/06/15 10:14:48;;;;;;;5.35;3.10;;;;;;;28.08;29.55;99820.53;4487464;31;33157;-84
2023/06/15 10:17:17;;;;;;;5.40;3.17;;;;;;;25.80;31.85;99826.25;4453501;31;32792;-85
2023/06/15 10:19:46;;;;;;;6.40;3.15;;;;;;;27.57;31.50;99817.34;4474831;31;33570;-88
2023/06/15 10:22:16;;;;;;;5.43;3.22;;;;;;;26.40;30.58;99817.22;4471988;31;33707;-84
2023/06/15 10:24:45;;;;;;;5.25;3.03;;;;;;;25.98;30.36;99825.09;4492481;31;33469;-84
2023/06/15 10:27:14;;;;;;;5.47;3.22;;;;;;;27.04;32.14;99819.44;4471039;31;33188;-86
2023/06/15 10:29:54;;;;;;;6.50;2.95;;;;;;;26.35;30.27;99813.78;4476338;31;33977;-86
2023/06/15 10:32:56;;;;;;;5.80;3.00;;;;;;;26.48;31.06;99809.97;4477006;31;32801;-82
2023/06/15 10:35:30;;;;;;;5.00;3.10;;;;;;;26.76;31.21;99814.75;4458681;31;33750;-83
2023/06/15 10:38:12;;;;;;;5.35;2.90;;;;;;;26.43;30.60;99814.50;4480985;31;33759;-83
2023/06/15 10:40:46;;;;;;;6.65;2.92;;;;;;;27.68;29.49;99806.44;4471550;31;34075;-86
2023/06/15 10:43:21;;;;;;;5.33;2.93;;;;;;;27.56;28.90;99807.59;4490960;31;34285;-84
2023/06/15 10:45:49;;;;;;;5.85;3.00;;;;;;;26.57;30.02;99816.00;4483899;31;33291;-85
2023/06/15 10:48:28;;;;;;;5.28;2.67;;;;;;;27.34;29.05;99811.72;4482311;31;33198;-85
2023/06/15 10:51:07;;;;;;;4.97;3.17;;;;;;;27.75;28.42;99807.16;4456094;32;775048;-84
2023/06/15 10:53:41;;;;;;;6.37;3.15;;;;;;;26.00;29.92;99818.00;4481341;32;34070;-84
2023/06/15 10:56:16;;;;;;;5.85;3.12;;;;;;;26.17;29.65;99807.03;4481309;32;33248;-84
2023/06/15 10:59:07;;;;;;;5.82;3.10;;;;;;;27.54;28.82;99798.78;4481245;31;32189;-87
2023/06/15 11:01:35;;;;;;;5.80;3.10;;;;;;;28.65;27.30;99792.28;4488602;31;33052;-85
2023/06/15 11:04:27;;;;;;;5.37;3.17;;;;;;;28.27;28.40;99789.81;4485105;31;34378;-85
2023/06/15 11:06:56;;;;;;;6.55;3.10;;;;;;;28.17;28.45;99793.66;4481633;31;33446;-84
2023/06/15 11:09:35;;;;;;;5.05;3.00;;;;;;;28.64;28.43;99799.44;4475424;31;31840;-86
2023/06/15 11:12:32;;;;;;;5.70;3.20;;;;;;;28.30;27.75;99789.72;4482916;31;33379;-84
2023/06/15 11:15:01;;;;;;;5.75;3.25;;;;;;;28.25;28.95;99794.31;4481154;31;32317;-86
2023/06/15 11:17:29;;;;;;;5.65;3.40;;;;;;;28.51;27.37;99793.59;4482000;31;33768;-84
2023/06/15 11:19:57;;;;;;;4.93;2.92;;;;;;;27.97;28.84;99791.50;4481426;31;35058;-83
2023/06/15 11:22:26;;;;;;;5.40;3.15;;;;;;;28.37;27.05;99791.28;4485197;31;33412;-83
2023/06/15 11:24:54;;;;;;;6.03;3.40;;;;;;;27.50;28.93;99798.91;4484974;31;33531;-80
2023/06/15 11:27:22;;;;;;;6.75;3.35;;;;;;;27.07;27.65;99803.44;4482805;31;33595;-83
2023/06/15 11:29:55;;;;;;;5.00;3.10;;;;;;;28.27;26.05;99788.94;4476509;31;31698;-86
2023/06/15 11:32:26;;;;;;;5.50;2.83;;;;;;;26.69;28.02;99789.22;4481577;31;33451;-83
2023/06/15 11:35:03;;;;;;;5.78;2.92;;;;;;;26.70;28.25;99798.06;4491131;31;34445;-84
2023/06/15 11:37:31;;;;;;;4.72;2.70;;;;;;;27.36;28.04;99794.81;4489926;31;33011;-84
2023/06/15 11:40:00;;;;;;;4.73;2.83;;;;;;;27.43;26.40;99795.53;4488478;31;33768;-82
2023/06/15 11:42:28;;;;;;;5.30;2.90;;;;;;;27.05;27.88;99789.31;4483499;31;33427;-84